createdAt,value
2022-08-26T00:04:25.599Z,23.20
2022-08-26T00:07:14.109Z,23.30
2022-08-26T00:09:41.843Z,21.30
2022-08-26T00:12:14.934Z,22.40
2022-08-26T00:14:42.603Z,22.40
2022-08-26T00:17:10.269Z,22.60
2022-08-26T00:19:38.006Z,22.50
2022-08-26T00:22:06.127Z,20.70
2022-08-26T00:24:33.673Z,22.40
2022-08-26T00:27:01.252Z,22.40
2022-08-26T00:29:29.192Z,22.50
2022-08-26T00:31:59.599Z,22.40
2022-08-26T00:34:27.282Z,22.50
2022-08-26T00:36:55.035Z,22.30
2022-08-26T00:39:22.996Z,22.40
2022-08-26T00:41:50.733Z,22.50
2022-08-26T00:44:20.232Z,22.30
2022-08-26T00:47:00.915Z,22.50
2022-08-26T00:49:42.013Z,22.40
2022-08-26T00:52:15.334Z,22.40
2022-08-26T00:55:01.188Z,22.70
2022-08-26T00:57:31.393Z,22.30
2022-08-26T01:00:01.408Z,22.30
2022-08-26T01:02:29.189Z,22.70
2022-08-26T01:05:03.226Z,22.30
2022-08-26T01:07:31.917Z,22.20
2022-08-26T01:10:06.465Z,22.30
2022-08-26T01:12:40.614Z,22.30
2022-08-26T01:15:12.184Z,22.30
2022-08-26T01:17:40.003Z,22.30
2022-08-26T01:20:31.412Z,22.20
2022-08-26T01:23:03.217Z,22.20
2022-08-26T01:25:34.214Z,22.10
2022-08-26T01:28:05.815Z,22.30
2022-08-26T01:30:35.462Z,22.30
2022-08-26T01:33:06.957Z,22.10
2022-08-26T01:35:34.675Z,22.40
2022-08-26T01:38:02.770Z,22.10
2022-08-26T01:40:37.235Z,22.20
2022-08-26T01:43:08.364Z,21.00
2022-08-26T01:45:40.457Z,22.10
2022-08-26T01:48:14.280Z,22.10
2022-08-26T01:50:45.049Z,22.00
2022-08-26T01:53:17.486Z,22.00
2022-08-26T01:55:49.141Z,22.00
2022-08-26T01:58:32.339Z,22.20
2022-08-26T02:01:00.233Z,22.00
2022-08-26T02:03:30.561Z,22.00
2022-08-26T02:06:05.592Z,22.10
2022-08-26T02:08:47.983Z,22.10
2022-08-26T02:11:18.282Z,22.00
2022-08-26T02:13:51.175Z,21.50
2022-08-26T02:16:22.437Z,22.40
2022-08-26T02:18:53.782Z,22.20
2022-08-26T02:21:21.935Z,21.90
2022-08-26T02:23:53.073Z,20.00
2022-08-26T02:26:27.167Z,21.90
2022-08-26T02:29:07.799Z,21.90
2022-08-26T02:31:35.407Z,21.80
2022-08-26T02:34:11.387Z,21.80
2022-08-26T02:36:39.187Z,21.80
2022-08-26T02:39:08.002Z,21.00
2022-08-26T02:41:35.936Z,21.70
2022-08-26T02:44:12.552Z,21.80
2022-08-26T02:46:40.624Z,21.70
2022-08-26T02:49:08.893Z,21.80
2022-08-26T02:51:36.420Z,21.90
2022-08-26T02:54:04.990Z,21.70
2022-08-26T02:56:35.998Z,21.60
2022-08-26T02:59:04.634Z,21.60
2022-08-26T03:01:34.715Z,21.60
2022-08-26T03:04:05.542Z,21.60
2022-08-26T03:06:33.300Z,22.60
2022-08-26T03:09:00.876Z,21.70
2022-08-26T03:11:33.019Z,21.70
2022-08-26T03:14:03.368Z,21.60
2022-08-26T03:16:33.398Z,21.70
2022-08-26T03:19:02.385Z,21.60
2022-08-26T03:21:31.087Z,23.10
2022-08-26T03:23:59.507Z,21.60
2022-08-26T03:26:28.631Z,21.50
2022-08-26T03:29:15.446Z,21.50
2022-08-26T03:31:44.137Z,21.50
2022-08-26T03:34:15.094Z,21.50
2022-08-26T03:36:43.296Z,21.50
2022-08-26T03:39:11.162Z,21.50
2022-08-26T03:41:39.077Z,21.50
2022-08-26T03:44:08.927Z,21.60
2022-08-26T03:46:38.465Z,21.50
2022-08-26T03:49:06.506Z,21.60
2022-08-26T03:51:38.893Z,21.50
2022-08-26T03:54:08.280Z,21.50
2022-08-26T03:56:37.170Z,21.50
2022-08-26T03:59:08.012Z,21.50
2022-08-26T04:01:35.791Z,21.50
2022-08-26T04:04:04.130Z,21.50
2022-08-26T04:06:35.374Z,19.80
2022-08-26T04:09:09.996Z,21.40
2022-08-26T04:11:39.378Z,21.40
2022-08-26T04:14:10.448Z,21.50
2022-08-26T04:16:40.468Z,21.30
2022-08-26T04:19:12.630Z,21.20
2022-08-26T04:21:41.289Z,20.80
2022-08-26T04:24:11.901Z,21.30
2022-08-26T04:26:43.780Z,21.20
2022-08-26T04:29:20.690Z,21.30
2022-08-26T04:31:48.297Z,21.20
2022-08-26T04:34:16.751Z,21.20
2022-08-26T04:36:44.678Z,21.20
2022-08-26T04:39:14.916Z,21.20
2022-08-26T04:41:43.726Z,21.20
2022-08-26T04:44:11.745Z,21.80
2022-08-26T04:46:43.847Z,21.20
2022-08-26T04:49:12.270Z,21.20
2022-08-26T04:51:40.641Z,21.30
2022-08-26T04:54:08.179Z,21.30
2022-08-26T04:56:39.202Z,21.20
2022-08-26T04:59:16.602Z,21.20
2022-08-26T05:01:50.740Z,21.20
2022-08-26T05:04:19.360Z,21.20
2022-08-26T05:06:49.987Z,21.20
2022-08-26T05:09:20.662Z,21.20
2022-08-26T05:11:52.029Z,21.20
2022-08-26T05:14:23.185Z,21.20
2022-08-26T05:16:51.513Z,21.10
2022-08-26T05:19:19.581Z,21.20
2022-08-26T05:21:48.869Z,21.10
2022-08-26T05:24:18.494Z,19.40
2022-08-26T05:26:48.355Z,20.60
2022-08-26T05:29:16.834Z,21.20
2022-08-26T05:31:44.634Z,21.10
2022-08-26T05:34:15.087Z,21.00
2022-08-26T05:36:45.202Z,21.30
2022-08-26T05:39:12.845Z,21.40
2022-08-26T05:41:43.026Z,21.10
2022-08-26T05:44:15.195Z,21.20
2022-08-26T05:46:44.838Z,21.40
2022-08-26T05:49:14.438Z,21.40
2022-08-26T05:51:46.411Z,21.30
2022-08-26T05:54:21.728Z,21.30
2022-08-26T05:56:54.966Z,21.30
2022-08-26T05:59:24.575Z,21.60
2022-08-26T06:01:54.743Z,21.50
2022-08-26T06:04:26.704Z,21.30
2022-08-26T06:06:55.817Z,21.40
2022-08-26T06:09:23.772Z,21.50
2022-08-26T06:11:52.375Z,21.50
2022-08-26T06:14:24.936Z,21.50
2022-08-26T06:16:52.753Z,21.80
2022-08-26T06:19:22.146Z,21.60
2022-08-26T06:21:54.688Z,20.30
2022-08-26T06:24:56.745Z,21.90
2022-08-26T06:27:34.986Z,21.90
2022-08-26T06:30:04.455Z,23.50
2022-08-26T06:32:37.049Z,20.80
2022-08-26T06:38:02.252Z,22.00
2022-08-26T06:40:32.963Z,22.20
2022-08-26T06:43:02.246Z,22.40
2022-08-26T06:45:37.289Z,20.40
2022-08-26T06:48:07.558Z,21.50
2022-08-26T06:50:40.706Z,22.10
2022-08-26T06:53:14.275Z,22.40
2022-08-26T07:00:42.360Z,22.50
2022-08-26T07:03:15.631Z,20.40
2022-08-26T07:05:44.907Z,23.90
2022-08-26T07:08:17.995Z,20.40
2022-08-26T07:10:48.076Z,22.40
2022-08-26T07:13:17.180Z,22.50
2022-08-26T07:16:02.875Z,22.40
2022-08-26T07:18:31.550Z,22.40
2022-08-26T07:21:08.410Z,22.30
2022-08-26T07:23:37.165Z,22.20
2022-08-26T07:26:10.383Z,22.30
2022-08-26T07:28:38.380Z,22.20
2022-08-26T07:31:10.684Z,22.20
2022-08-26T07:33:40.678Z,22.50
2022-08-26T07:36:10.363Z,22.20
2022-08-26T07:38:39.782Z,22.20
2022-08-26T07:41:09.098Z,22.20
2022-08-26T07:43:40.906Z,22.30
2022-08-26T07:46:09.768Z,22.30
2022-08-26T07:48:51.598Z,22.30
2022-08-26T07:51:21.578Z,21.30
2022-08-26T07:53:52.329Z,22.60
2022-08-26T07:56:24.508Z,21.60
2022-08-26T07:58:53.644Z,22.20
2022-08-26T08:01:26.967Z,22.10
2022-08-26T08:03:55.809Z,22.10
2022-08-26T08:06:27.116Z,22.20
2022-08-26T08:08:55.681Z,22.20
2022-08-26T08:11:27.754Z,23.20
2022-08-26T08:13:56.852Z,22.40
2022-08-26T08:16:32.361Z,20.60
2022-08-26T08:22:19.921Z,22.60
2022-08-26T08:24:54.051Z,21.10
2022-08-26T08:27:24.473Z,22.70
2022-08-26T08:29:59.741Z,24.30
2022-08-26T08:32:29.788Z,22.90
2022-08-26T08:34:58.714Z,22.80
2022-08-26T08:37:27.063Z,20.80
2022-08-26T08:39:54.758Z,22.70
2022-08-26T08:42:56.613Z,21.60
2022-08-26T08:45:42.578Z,22.80
2022-08-26T08:48:27.309Z,24.10
2022-08-26T08:51:29.187Z,22.80
2022-08-26T08:54:05.810Z,22.90
2022-08-26T08:57:04.456Z,22.90
2022-08-26T08:59:35.670Z,22.90
2022-08-26T09:02:22.240Z,22.90
2022-08-26T09:04:59.030Z,25.60
2022-08-26T09:07:40.208Z,25.90
2022-08-26T09:10:23.414Z,23.20
2022-08-26T09:12:52.787Z,23.20
2022-08-26T09:15:25.417Z,23.10
2022-08-26T09:18:20.954Z,23.20
2022-08-26T09:20:57.561Z,23.40
2022-08-26T09:23:27.795Z,23.40
2022-08-26T09:26:19.243Z,23.50
2022-08-26T09:32:33.533Z,23.20
2022-08-26T09:42:51.337Z,22.90
2022-08-26T09:48:37.284Z,22.80
2022-08-26T09:55:03.563Z,22.90
2022-08-26T09:57:34.409Z,23.10
2022-08-26T10:00:30.137Z,22.20
2022-08-26T10:03:08.523Z,23.30
2022-08-26T10:05:44.490Z,23.40
2022-08-26T10:08:21.304Z,23.20
2022-08-26T10:10:55.569Z,23.50
2022-08-26T10:13:29.479Z,23.20
2022-08-26T10:16:06.330Z,23.20
2022-08-26T10:18:46.021Z,23.10
2022-08-26T10:21:28.044Z,23.30
2022-08-26T10:23:59.451Z,22.40
2022-08-26T10:26:37.360Z,23.60
2022-08-26T10:29:34.336Z,23.60
2022-08-26T10:32:07.239Z,23.40
2022-08-26T10:34:34.848Z,23.40
2022-08-26T10:37:16.712Z,23.40
2022-08-26T10:40:08.207Z,23.60
2022-08-26T10:42:43.086Z,23.40
2022-08-26T10:45:19.980Z,23.50
2022-08-26T10:48:06.198Z,22.30
2022-08-26T10:50:41.567Z,25.00
2022-08-26T10:53:32.707Z,24.10
2022-08-26T10:56:39.708Z,22.70
2022-08-26T10:59:31.163Z,24.10
2022-08-26T11:02:12.783Z,24.10
2022-08-26T11:04:57.928Z,24.20
2022-08-26T11:07:36.312Z,24.20
2022-08-26T11:10:23.056Z,24.20
2022-08-26T11:13:03.860Z,24.30
2022-08-26T11:15:31.972Z,24.40
2022-08-26T11:18:32.266Z,24.60
2022-08-26T11:21:00.173Z,24.60
2022-08-26T11:23:28.711Z,24.70
2022-08-26T11:25:56.320Z,24.90
2022-08-26T11:28:36.786Z,24.90
2022-08-26T11:31:10.275Z,24.90
2022-08-26T11:33:47.857Z,24.80
2022-08-26T11:36:54.689Z,24.90
2022-08-26T11:42:41.027Z,24.80
2022-08-26T11:48:37.133Z,24.70
2022-08-26T11:51:11.725Z,24.60
2022-08-26T11:53:44.967Z,24.90
2022-08-26T11:56:24.616Z,24.50
2022-08-26T11:58:57.382Z,24.20
2022-08-26T12:01:35.852Z,24.10
2022-08-26T12:04:06.702Z,24.00
2022-08-26T12:06:47.703Z,23.80
2022-08-26T12:09:29.285Z,23.80
2022-08-26T12:12:18.353Z,23.70
2022-08-26T12:14:46.796Z,23.70
2022-08-26T12:17:28.608Z,23.70
2022-08-26T12:19:56.397Z,23.80
2022-08-26T12:22:41.098Z,23.90
2022-08-26T12:25:38.985Z,21.90
2022-08-26T12:28:07.482Z,24.20
2022-08-26T12:30:41.237Z,24.20
2022-08-26T12:36:01.528Z,24.40
2022-08-26T12:38:42.053Z,22.40
2022-08-26T12:41:12.135Z,24.30
2022-08-26T12:43:46.761Z,24.50
2022-08-26T12:46:29.455Z,24.20
2022-08-26T12:49:01.338Z,24.20
2022-08-26T12:51:33.602Z,24.20
2022-08-26T12:54:06.964Z,24.30
2022-08-26T12:56:41.071Z,24.70
2022-08-26T12:59:27.179Z,24.60
2022-08-26T13:01:55.057Z,24.70
2022-08-26T13:04:33.876Z,24.50
2022-08-26T13:07:22.045Z,24.30
2022-08-26T13:09:51.601Z,24.30
2022-08-26T13:12:32.403Z,24.20
2022-08-26T13:15:01.445Z,24.20
2022-08-26T13:17:30.453Z,24.00
2022-08-26T13:20:04.080Z,24.10
2022-08-26T13:22:32.115Z,23.80
2022-08-26T13:25:07.397Z,23.80
2022-08-26T13:27:36.397Z,23.60
2022-08-26T13:30:05.779Z,23.60
2022-08-26T13:32:35.119Z,24.60
2022-08-26T13:35:14.780Z,23.70
2022-08-26T13:37:43.846Z,23.80
2022-08-26T13:40:13.254Z,24.00
2022-08-26T13:42:49.490Z,23.80
2022-08-26T13:45:20.804Z,22.50
2022-08-26T13:47:52.256Z,23.90
2022-08-26T13:50:19.984Z,24.20
2022-08-26T13:52:53.927Z,21.70
2022-08-26T13:55:24.803Z,23.80
2022-08-26T13:57:53.673Z,23.60
2022-08-26T14:00:22.231Z,23.60
2022-08-26T14:02:50.148Z,25.50
2022-08-26T14:05:23.241Z,23.40
2022-08-26T14:07:51.291Z,23.40
2022-08-26T14:10:19.576Z,23.40
2022-08-26T14:12:51.800Z,23.70
2022-08-26T14:15:24.204Z,23.70
2022-08-26T14:17:58.123Z,23.70
2022-08-26T14:20:29.647Z,24.00
2022-08-26T14:23:13.007Z,23.90
2022-08-26T14:25:41.377Z,24.00
2022-08-26T14:28:11.588Z,24.20
2022-08-26T14:30:43.759Z,24.50
2022-08-26T14:33:13.702Z,24.40
2022-08-26T14:35:49.924Z,24.20
2022-08-26T14:38:18.700Z,24.10
2022-08-26T14:40:48.717Z,23.80
2022-08-26T14:43:17.750Z,24.10
2022-08-26T14:45:49.863Z,22.60
2022-08-26T14:48:20.676Z,23.90
2022-08-26T14:50:48.802Z,24.10
2022-08-26T14:53:35.291Z,24.10
2022-08-26T14:56:11.715Z,24.40
2022-08-26T14:58:41.556Z,24.10
2022-08-26T15:01:09.302Z,24.50
2022-08-26T15:03:45.969Z,24.40
2022-08-26T15:06:22.062Z,24.30
2022-08-26T15:08:53.708Z,24.00
2022-08-26T15:11:23.756Z,24.30
2022-08-26T15:14:05.641Z,24.20
2022-08-26T15:16:39.411Z,24.20
2022-08-26T15:19:09.609Z,23.30
2022-08-26T15:21:45.945Z,22.60
2022-08-26T15:24:17.815Z,24.00
2022-08-26T15:26:51.131Z,23.90
2022-08-26T15:29:24.195Z,23.40
2022-08-26T15:32:01.409Z,24.00
2022-08-26T15:34:37.820Z,22.60
2022-08-26T15:37:10.005Z,23.80
2022-08-26T15:39:39.558Z,23.70
2022-08-26T15:42:22.569Z,22.30
2022-08-26T15:44:53.079Z,23.80
2022-08-26T15:47:22.741Z,22.30
2022-08-26T15:49:52.728Z,24.50
2022-08-26T15:52:29.268Z,23.80
2022-08-26T15:54:57.205Z,23.50
2022-08-26T15:57:29.583Z,23.90
2022-08-26T16:00:03.823Z,23.80
2022-08-26T16:02:41.201Z,23.90
2022-08-26T16:05:13.792Z,23.90
2022-08-26T16:07:41.397Z,23.10
2022-08-26T16:10:12.439Z,23.90
2022-08-26T16:12:40.568Z,23.80
2022-08-26T16:15:09.393Z,23.70
2022-08-26T16:17:37.641Z,23.90
2022-08-26T16:20:06.030Z,24.20
2022-08-26T16:22:43.215Z,24.00
2022-08-26T16:25:11.518Z,24.00
2022-08-26T16:27:39.128Z,24.20
2022-08-26T16:30:08.008Z,24.10
2022-08-26T16:32:35.737Z,24.10
2022-08-26T16:35:03.653Z,24.00
2022-08-26T16:37:33.716Z,24.10
2022-08-26T16:40:04.957Z,24.00
2022-08-26T16:42:35.692Z,23.80
2022-08-26T16:45:07.409Z,22.90
2022-08-26T16:47:36.357Z,23.90
2022-08-26T16:50:14.145Z,23.40
2022-08-26T16:52:44.533Z,23.40
2022-08-26T16:55:16.489Z,23.60
2022-08-26T16:57:45.240Z,23.50
2022-08-26T17:00:28.002Z,23.60
2022-08-26T17:02:57.271Z,23.30
2022-08-26T17:05:28.360Z,23.20
2022-08-26T17:07:58.300Z,23.10
2022-08-26T17:10:27.887Z,23.10
2022-08-26T17:12:56.189Z,23.00
2022-08-26T17:15:23.991Z,23.10
2022-08-26T17:17:52.621Z,22.90
2022-08-26T17:20:24.128Z,22.90
2022-08-26T17:22:54.450Z,22.80
2022-08-26T17:25:28.682Z,22.90
2022-08-26T17:30:25.908Z,22.70
2022-08-26T17:32:55.135Z,22.80
2022-08-26T17:35:23.187Z,22.70
2022-08-26T17:37:51.473Z,22.70
2022-08-26T17:40:22.199Z,22.60
2022-08-26T17:42:51.114Z,22.50
2022-08-26T17:45:22.378Z,22.80
2022-08-26T17:47:50.187Z,21.90
2022-08-26T17:50:19.159Z,22.40
2022-08-26T17:52:46.900Z,22.60
2022-08-26T17:55:16.728Z,22.30
2022-08-26T17:57:44.641Z,22.30
2022-08-26T18:00:22.925Z,22.10
2022-08-26T18:02:50.417Z,22.20
2022-08-26T18:05:20.960Z,22.10
2022-08-26T18:07:49.030Z,22.20
2022-08-26T18:10:18.262Z,22.10
2022-08-26T18:12:46.441Z,22.00
2022-08-26T18:15:15.740Z,22.20
2022-08-26T18:17:43.955Z,22.10
2022-08-26T18:20:19.580Z,22.10
2022-08-26T18:22:49.394Z,22.20
2022-08-26T18:25:20.308Z,21.90
2022-08-26T18:27:48.528Z,21.90
2022-08-26T18:30:20.917Z,21.80
2022-08-26T18:32:51.947Z,21.80
2022-08-26T18:35:23.465Z,21.90
2022-08-26T18:37:51.169Z,21.90
2022-08-26T18:40:21.098Z,21.70
2022-08-26T18:42:54.034Z,22.40
2022-08-26T18:45:22.739Z,21.50
2022-08-26T18:47:51.058Z,20.80
2022-08-26T18:50:19.625Z,21.70
2022-08-26T18:52:49.465Z,21.60
2022-08-26T18:55:17.611Z,21.40
2022-08-26T18:57:48.526Z,22.50
2022-08-26T19:00:17.589Z,21.60
2022-08-26T19:02:52.042Z,21.40
2022-08-26T19:05:28.343Z,21.20
2022-08-26T19:08:44.658Z,23.20
2022-08-26T19:11:09.347Z,21.50
2022-08-26T19:13:46.259Z,21.80
2022-08-26T19:16:30.465Z,21.30
2022-08-26T19:19:00.699Z,21.30
2022-08-26T19:21:29.847Z,21.10
2022-08-26T19:23:59.105Z,21.10
2022-08-26T19:26:28.563Z,21.20
2022-08-26T19:28:59.201Z,21.10
2022-08-26T19:31:29.751Z,21.00
2022-08-26T19:33:58.204Z,21.20
2022-08-26T19:39:21.009Z,22.20
2022-08-26T19:41:50.112Z,20.50
2022-08-26T19:44:40.874Z,21.30
2022-08-26T19:47:11.044Z,20.80
2022-08-26T19:49:38.745Z,20.50
2022-08-26T19:52:12.213Z,21.00
2022-08-26T19:54:40.704Z,20.70
2022-08-26T19:57:10.596Z,20.80
2022-08-26T19:59:40.210Z,20.70
2022-08-26T20:02:11.022Z,20.50
2022-08-26T20:04:39.675Z,20.40
2022-08-26T20:07:08.102Z,20.50
2022-08-26T20:09:36.843Z,20.40
2022-08-26T20:12:05.978Z,18.70
2022-08-26T20:14:35.175Z,20.20
2022-08-26T20:17:05.346Z,20.20
2022-08-26T20:19:59.342Z,20.40
2022-08-26T20:22:26.858Z,20.00
2022-08-26T20:24:54.549Z,20.00
2022-08-26T20:27:27.548Z,20.00
2022-08-26T20:30:07.797Z,20.00
2022-08-26T20:32:35.791Z,20.10
2022-08-26T20:35:04.942Z,19.80
2022-08-26T20:37:38.698Z,21.60
2022-08-26T20:40:09.135Z,20.00
2022-08-26T20:42:40.559Z,21.40
2022-08-26T20:45:12.625Z,21.00
2022-08-26T20:47:44.093Z,21.80
2022-08-26T20:50:14.377Z,18.20
2022-08-26T20:52:47.179Z,19.60
2022-08-26T20:55:17.665Z,19.70
2022-08-26T20:57:45.352Z,19.50
2022-08-26T21:00:16.211Z,19.50
2022-08-26T21:02:47.679Z,18.80
2022-08-26T21:05:18.785Z,19.40
2022-08-26T21:07:48.447Z,19.00
2022-08-26T21:10:17.439Z,18.00
2022-08-26T21:12:48.446Z,19.60
2022-08-26T21:15:17.208Z,18.30
2022-08-26T21:17:45.407Z,19.50
2022-08-26T21:20:20.851Z,19.40
2022-08-26T21:22:50.646Z,19.40
2022-08-26T21:25:18.859Z,19.20
2022-08-26T21:27:49.738Z,19.10
2022-08-26T21:30:19.095Z,19.50
2022-08-26T21:32:47.064Z,19.20
2022-08-26T21:35:17.043Z,19.30
2022-08-26T21:37:44.881Z,19.30
2022-08-26T21:40:23.137Z,19.00
2022-08-26T21:42:52.468Z,19.30
2022-08-26T21:45:22.748Z,17.50
2022-08-26T21:47:52.870Z,18.40
2022-08-26T21:50:20.771Z,19.10
2022-08-26T21:52:48.530Z,18.80
2022-08-26T21:55:17.195Z,18.90
2022-08-26T21:57:44.806Z,18.90
2022-08-26T22:00:15.626Z,18.90
2022-08-26T22:02:43.319Z,18.80
2022-08-26T22:05:11.306Z,19.40
2022-08-26T22:07:38.973Z,18.80
2022-08-26T22:10:07.230Z,18.80
2022-08-26T22:12:34.950Z,18.70
2022-08-26T22:15:05.788Z,19.00
2022-08-26T22:17:34.218Z,18.00
2022-08-26T22:20:02.149Z,18.80
2022-08-26T22:22:31.399Z,18.90
2022-08-26T22:24:59.957Z,18.90
2022-08-26T22:27:27.531Z,18.70
2022-08-26T22:29:55.095Z,18.70
2022-08-26T22:32:23.997Z,18.80
2022-08-26T22:34:52.924Z,18.70
2022-08-26T22:37:23.141Z,17.80
2022-08-26T22:39:50.935Z,18.80
2022-08-26T22:42:18.594Z,18.70
2022-08-26T22:44:46.115Z,18.70
2022-08-26T22:47:13.793Z,18.60
2022-08-26T22:49:41.533Z,18.80
2022-08-26T22:52:11.976Z,18.70
2022-08-26T22:54:39.706Z,18.70
2022-08-26T22:57:07.290Z,18.80
2022-08-26T22:59:37.078Z,18.60
2022-08-26T23:02:04.692Z,18.90
2022-08-26T23:04:35.705Z,18.90
2022-08-26T23:07:03.537Z,18.80
2022-08-26T23:09:32.547Z,18.80
2022-08-26T23:12:00.337Z,19.00
2022-08-26T23:14:27.896Z,18.60
2022-08-26T23:16:55.472Z,18.80
2022-08-26T23:19:23.699Z,18.90
2022-08-26T23:21:51.676Z,18.70
2022-08-26T23:24:19.726Z,18.70
2022-08-26T23:26:47.408Z,19.10
2022-08-26T23:29:16.029Z,18.70
2022-08-26T23:31:43.961Z,18.90
2022-08-26T23:34:30.577Z,19.10
2022-08-26T23:36:59.027Z,18.80
2022-08-26T23:39:27.794Z,18.90
2022-08-26T23:41:58.625Z,19.10
2022-08-26T23:44:26.667Z,19.00
2022-08-26T23:46:58.935Z,19.00
2022-08-26T23:49:27.412Z,18.80
2022-08-26T23:52:13.480Z,19.00
2022-08-26T23:54:41.275Z,18.90
2022-08-26T23:57:09.691Z,19.00
2022-08-26T23:59:38.697Z,19.00
